Time;durP1;ratioP1;P1;durP2;ratioP2;P2;SDS_P1;SDS_P2;PMS_P1;PMS_P2;Temp;Humidity;BMP_temperature;BMP_pressure;BME280_temperature;BME280_humidity;BME280_pressure;Samples;Min_cycle;Max_cycle;Signal;HPM_P1;HPM_P2
2023/12/03 00:01:18;;;;;;;39.73;21.90;;;-1.30;99.90;;;;;;5020501;28;20748;-79
2023/12/03 00:03:45;;;;;;;46.23;25.33;;;-1.50;99.90;;;;;;5042420;28;20314;-80
2023/12/03 00:06:12;;;;;;;57.90;31.43;;;-1.60;99.90;;;;;;5037193;28;20235;-79
2023/12/03 00:08:40;;;;;;;58.97;32.67;;;-1.70;99.90;;;;;;5024805;28;20239;-80
2023/12/03 00:11:07;;;;;;;44.93;23.13;;;-1.80;99.90;;;;;;5043318;28;20256;-79
2023/12/03 00:13:34;;;;;;;36.40;20.30;;;-1.90;99.90;;;;;;5028742;28;20326;-79
2023/12/03 00:16:00;;;;;;;29.33;16.63;;;-1.90;99.90;;;;;;5040817;28;20230;-80
2023/12/03 00:18:27;;;;;;;32.97;18.10;;;-1.90;99.90;;;;;;5026229;28;20248;-80
2023/12/03 00:20:56;;;;;;;28.23;16.07;;;-1.90;99.90;;;;;;5030594;28;20604;-79
2023/12/03 00:23:22;;;;;;;28.80;17.77;;;-1.80;99.90;;;;;;5026355;28;20379;-80
2023/12/03 00:25:49;;;;;;;29.03;17.37;;;-1.80;99.90;;;;;;4999211;28;20314;-80
2023/12/03 00:28:16;;;;;;;31.23;18.37;;;-1.80;99.90;;;;;;5037200;28;20739;-80
2023/12/03 00:30:43;;;;;;;34.30;18.70;;;-1.70;99.90;;;;;;5039214;28;20259;-80
2023/12/03 00:33:09;;;;;;;28.13;16.47;;;-1.70;99.90;;;;;;5025107;28;20227;-79
2023/12/03 00:35:36;;;;;;;51.23;18.20;;;-1.60;99.90;;;;;;5044277;28;20527;-80
2023/12/03 00:38:04;;;;;;;29.27;17.07;;;-1.60;99.90;;;;;;5029395;28;20311;-80
2023/12/03 00:40:31;;;;;;;36.77;18.03;;;-1.50;99.90;;;;;;5026197;28;20305;-80
2023/12/03 00:42:58;;;;;;;48.03;19.17;;;-1.50;99.90;;;;;;5043863;28;20301;-80
2023/12/03 00:45:24;;;;;;;43.87;17.97;;;-1.50;99.90;;;;;;5043801;28;20235;-80
2023/12/03 00:47:51;;;;;;;41.50;18.07;;;-1.50;99.90;;;;;;5040525;28;20722;-80
2023/12/03 00:50:18;;;;;;;30.93;17.43;;;-1.50;99.90;;;;;;5038977;28;20230;-80
2023/12/03 00:52:45;;;;;;;35.17;17.43;;;-1.40;99.90;;;;;;5040796;28;20309;-80
2023/12/03 00:55:14;;;;;;;36.20;17.90;;;-1.40;99.90;;;;;;5050766;28;20621;-81
2023/12/03 00:57:41;;;;;;;31.30;17.90;;;-1.40;99.90;;;;;;5023453;28;20254;-80
2023/12/03 01:00:09;;;;;;;54.47;18.07;;;-1.30;99.90;;;;;;5017627;28;20229;-80
2023/12/03 01:02:36;;;;;;;31.17;18.43;;;-1.30;99.90;;;;;;5023481;28;20293;-80
2023/12/03 01:05:03;;;;;;;32.13;17.13;;;-1.20;99.90;;;;;;5042157;28;20228;-80
2023/12/03 01:07:30;;;;;;;56.87;19.10;;;-1.20;99.90;;;;;;5043268;28;20314;-80
2023/12/03 01:09:57;;;;;;;36.20;18.70;;;-1.20;99.90;;;;;;5046987;28;20320;-80
2023/12/03 01:12:25;;;;;;;39.60;19.50;;;-1.20;99.90;;;;;;5026474;28;20258;-80
2023/12/03 01:14:51;;;;;;;50.47;18.60;;;-1.20;99.90;;;;;;5046349;28;20314;-80
2023/12/03 01:17:18;;;;;;;55.10;19.33;;;-1.10;99.90;;;;;;5014480;28;20734;-80
2023/12/03 01:19:45;;;;;;;36.80;18.13;;;-1.10;99.90;;;;;;5024020;28;20223;-80
2023/12/03 01:22:12;;;;;;;35.07;18.70;;;-1.10;99.90;;;;;;5022769;28;20538;-80
2023/12/03 01:24:39;;;;;;;32.47;18.40;;;-1.10;99.90;;;;;;5043002;28;20313;-80
2023/12/03 01:27:06;;;;;;;35.30;19.47;;;-1.10;99.90;;;;;;5040184;28;20229;-80
2023/12/03 01:29:34;;;;;;;31.87;18.03;;;-1.10;99.90;;;;;;5043068;28;20445;-81
2023/12/03 01:32:01;;;;;;;37.50;18.70;;;-1.00;99.90;;;;;;5037601;28;20250;-79
2023/12/03 01:34:27;;;;;;;31.33;18.00;;;-1.00;99.90;;;;;;5030250;28;20328;-80
2023/12/03 01:36:54;;;;;;;32.07;18.37;;;-1.00;99.90;;;;;;5022277;28;20585;-80
2023/12/03 01:39:21;;;;;;;27.60;15.73;;;-1.00;99.90;;;;;;5033049;28;20248;-80
2023/12/03 01:41:48;;;;;;;30.53;17.00;;;-1.00;99.90;;;;;;5037657;28;20220;-80
2023/12/03 01:44:15;;;;;;;32.00;16.80;;;-1.00;99.90;;;;;;5036465;28;20970;-80
2023/12/03 01:46:43;;;;;;;35.03;16.43;;;-1.00;99.90;;;;;;5028318;28;20633;-80
2023/12/03 01:49:12;;;;;;;27.50;15.63;;;-1.00;99.90;;;;;;5042312;28;20222;-80
2023/12/03 01:51:39;;;;;;;28.27;16.13;;;-1.00;99.90;;;;;;5040334;28;20651;-81
2023/12/03 01:54:06;;;;;;;27.87;16.47;;;-1.00;99.90;;;;;;5045117;28;20250;-80
2023/12/03 01:56:33;;;;;;;27.47;14.80;;;-1.00;99.90;;;;;;5050752;28;20251;-80
2023/12/03 01:59:01;;;;;;;36.07;16.50;;;-1.00;99.90;;;;;;5030416;28;20255;-80
2023/12/03 02:01:29;;;;;;;32.30;16.03;;;-0.90;99.90;;;;;;5045932;28;20248;-80
2023/12/03 02:03:57;;;;;;;23.93;14.87;;;-1.00;99.90;;;;;;5049132;28;20232;-80
2023/12/03 02:06:25;;;;;;;24.40;14.20;;;-0.90;99.90;;;;;;5041028;28;20235;-80
2023/12/03 02:08:53;;;;;;;33.23;14.57;;;-0.90;99.90;;;;;;5031620;28;20223;-80
2023/12/03 02:11:20;;;;;;;24.53;16.07;;;-1.00;99.90;;;;;;5043230;28;20643;-80
2023/12/03 02:13:48;;;;;;;29.33;15.57;;;-1.00;99.90;;;;;;5029721;28;20401;-80
2023/12/03 02:16:16;;;;;;;23.57;14.47;;;-1.00;99.90;;;;;;5026606;28;20318;-80
2023/12/03 02:18:43;;;;;;;26.70;14.60;;;-1.00;99.90;;;;;;5023561;28;20300;-79
2023/12/03 02:21:11;;;;;;;24.23;14.03;;;-1.00;99.90;;;;;;5023932;28;20269;-79
2023/12/03 02:23:39;;;;;;;22.40;13.53;;;-1.00;99.90;;;;;;5041990;28;20258;-79
2023/12/03 02:26:07;;;;;;;23.50;14.33;;;-1.10;99.90;;;;;;5040192;28;20228;-80
2023/12/03 02:28:34;;;;;;;22.67;12.83;;;-1.10;99.90;;;;;;5042185;28;20236;-79
2023/12/03 02:31:01;;;;;;;23.53;13.87;;;-1.10;99.90;;;;;;5018302;28;20227;-80
2023/12/03 02:33:28;;;;;;;22.93;13.40;;;-1.20;99.90;;;;;;5039244;28;20725;-80
2023/12/03 02:35:55;;;;;;;19.23;11.97;;;-1.20;99.90;;;;;;5040232;28;20325;-80
2023/12/03 02:38:22;;;;;;;21.33;12.57;;;-1.20;99.90;;;;;;5028353;28;20226;-79
2023/12/03 02:40:50;;;;;;;21.43;13.27;;;-1.30;99.90;;;;;;5037409;28;20245;-80
2023/12/03 02:43:17;;;;;;;20.53;12.77;;;-1.30;99.90;;;;;;5031588;28;20250;-80
2023/12/03 02:45:44;;;;;;;20.20;12.20;;;-1.40;99.90;;;;;;5028959;28;20425;-79
2023/12/03 02:48:10;;;;;;;19.13;12.27;;;-1.40;99.90;;;;;;5036696;28;20327;-80
2023/12/03 02:50:37;;;;;;;20.50;12.73;;;-1.40;99.90;;;;;;5020759;28;20262;-80
2023/12/03 02:53:04;;;;;;;20.77;12.57;;;-1.50;99.90;;;;;;5021012;28;20525;-79
2023/12/03 02:55:31;;;;;;;19.20;11.97;;;-1.50;99.90;;;;;;5021417;28;20312;-80
2023/12/03 02:58:00;;;;;;;18.37;12.07;;;-1.50;99.90;;;;;;5040565;28;20235;-80
2023/12/03 03:00:27;;;;;;;18.10;11.50;;;-1.60;99.90;;;;;;5044597;28;20805;-80
2023/12/03 03:02:55;;;;;;;20.03;12.10;;;-1.50;99.90;;;;;;5020415;28;20232;-80
2023/12/03 03:05:22;;;;;;;23.30;13.43;;;-1.60;99.90;;;;;;5019604;28;20261;-79
2023/12/03 03:07:49;;;;;;;22.47;12.90;;;-1.60;99.90;;;;;;5033400;28;20227;-80
2023/12/03 03:10:17;;;;;;;21.60;12.73;;;-1.60;99.90;;;;;;5024318;28;20230;-80
2023/12/03 03:12:43;;;;;;;21.03;13.03;;;-1.60;99.90;;;;;;5046307;28;20228;-80
2023/12/03 03:15:15;;;;;;;19.07;11.93;;;-1.60;99.90;;;;;;5044758;28;20866;-80
2023/12/03 03:17:41;;;;;;;18.83;11.97;;;-1.60;99.90;;;;;;5052614;28;20322;-81
2023/12/03 03:20:09;;;;;;;18.93;11.97;;;-1.60;99.90;;;;;;5030687;28;20231;-80
2023/12/03 03:22:36;;;;;;;22.97;13.73;;;-1.70;99.90;;;;;;5042311;28;20229;-80
2023/12/03 03:25:04;;;;;;;23.20;14.00;;;-1.70;99.90;;;;;;5039810;28;20331;-80
2023/12/03 03:27:31;;;;;;;25.27;14.47;;;-1.70;99.90;;;;;;5024473;28;20756;-80
2023/12/03 03:29:57;;;;;;;28.40;14.93;;;-1.70;99.90;;;;;;5043205;28;20281;-80
2023/12/03 03:32:25;;;;;;;25.40;14.03;;;-1.70;99.90;;;;;;5041937;28;20289;-79
2023/12/03 03:34:52;;;;;;;26.33;14.90;;;-1.80;99.90;;;;;;5022805;28;20251;-80
2023/12/03 03:37:19;;;;;;;23.93;14.63;;;-1.70;99.90;;;;;;5025520;28;20233;-80
2023/12/03 03:39:46;;;;;;;27.13;14.27;;;-1.70;99.90;;;;;;5041025;28;20266;-80
2023/12/03 03:42:13;;;;;;;29.57;16.50;;;-1.70;99.90;;;;;;5025840;28;20246;-80
2023/12/03 03:44:40;;;;;;;30.23;16.80;;;-1.70;99.90;;;;;;5029504;28;20311;-80
2023/12/03 03:47:07;;;;;;;33.13;17.40;;;-1.70;99.90;;;;;;5028405;28;20244;-81
2023/12/03 03:49:35;;;;;;;32.53;16.60;;;-1.70;99.90;;;;;;5045762;28;20427;-81
2023/12/03 03:52:03;;;;;;;36.07;17.90;;;-1.70;99.90;;;;;;5028475;28;20231;-79
2023/12/03 03:54:30;;;;;;;35.40;18.77;;;-1.60;99.90;;;;;;5042049;28;20319;-79
2023/12/03 03:56:57;;;;;;;38.13;18.70;;;-1.60;99.90;;;;;;5026911;28;20548;-80
2023/12/03 03:59:24;;;;;;;29.67;17.03;;;-1.60;99.90;;;;;;5016271;28;20283;-80
2023/12/03 04:01:51;;;;;;;53.30;24.50;;;-1.60;99.90;;;;;;5026102;28;20265;-80
2023/12/03 04:04:18;;;;;;;62.10;31.40;;;-1.60;99.90;;;;;;5044004;28;20696;-79
2023/12/03 04:06:47;;;;;;;34.20;18.57;;;-1.70;99.90;;;;;;5037343;28;20223;-79
2023/12/03 04:09:15;;;;;;;46.93;30.17;;;-1.70;99.90;;;;;;5023979;28;20706;-79
2023/12/03 04:11:42;;;;;;;40.23;23.37;;;-1.80;99.90;;;;;;5040854;28;20232;-80
2023/12/03 04:14:13;;;;;;;34.70;20.60;;;-1.80;99.90;;;;;;5022871;28;20279;-80
2023/12/03 04:16:40;;;;;;;29.13;16.77;;;-1.90;99.90;;;;;;5037016;28;20246;-80
2023/12/03 04:19:07;;;;;;;31.50;17.40;;;-2.00;99.90;;;;;;5033597;28;20656;-80
2023/12/03 04:21:35;;;;;;;36.30;20.33;;;-2.10;99.90;;;;;;5031099;28;20219;-80
2023/12/03 04:24:04;;;;;;;29.03;17.07;;;-2.20;99.90;;;;;;5032304;28;20276;-80
2023/12/03 04:26:31;;;;;;;80.20;21.50;;;-2.20;99.90;;;;;;5045587;28;20293;-80
2023/12/03 04:28:58;;;;;;;30.17;17.40;;;-2.30;99.90;;;;;;5046372;28;20222;-81
2023/12/03 04:31:26;;;;;;;30.23;17.10;;;-2.30;99.90;;;;;;5038955;28;20236;-81
2023/12/03 04:33:55;;;;;;;29.93;16.43;;;-2.30;99.90;;;;;;5040836;28;20246;-81
2023/12/03 04:36:23;;;;;;;31.87;15.77;;;-2.40;99.90;;;;;;5022256;28;20265;-80
2023/12/03 04:38:50;;;;;;;29.33;15.77;;;-2.40;99.90;;;;;;5041557;28;20235;-80
2023/12/03 04:41:19;;;;;;;29.30;16.30;;;-2.40;99.90;;;;;;5023815;28;20230;-80
2023/12/03 04:43:46;;;;;;;31.47;17.30;;;-2.50;99.90;;;;;;5027699;28;20227;-81
2023/12/03 04:46:13;;;;;;;31.47;16.33;;;-2.50;99.90;;;;;;5044945;28;20784;-81
2023/12/03 04:48:42;;;;;;;27.87;15.97;;;-2.50;99.90;;;;;;5021939;28;20232;-81
2023/12/03 04:51:11;;;;;;;26.27;15.23;;;-2.50;99.90;;;;;;5024093;28;20277;-82
2023/12/03 04:53:38;;;;;;;29.00;16.43;;;-2.50;99.90;;;;;;5031326;28;20239;-81
2023/12/03 04:56:06;;;;;;;32.80;16.30;;;-2.50;99.90;;;;;;5046763;28;20216;-81
2023/12/03 04:58:34;;;;;;;27.37;15.93;;;-2.50;99.90;;;;;;5049305;28;20411;-80
2023/12/03 05:01:02;;;;;;;29.67;16.17;;;-2.40;99.90;;;;;;5035420;28;20683;-80
2023/12/03 05:03:29;;;;;;;26.77;15.83;;;-2.40;99.90;;;;;;5049921;28;20475;-81
2023/12/03 05:05:55;;;;;;;29.10;16.03;;;-2.40;99.90;;;;;;5043737;28;20339;-82
2023/12/03 05:08:22;;;;;;;124.33;21.17;;;-2.30;99.90;;;;;;5038951;28;20231;-82
2023/12/03 05:10:49;;;;;;;35.87;15.87;;;-2.30;99.90;;;;;;5021750;28;20754;-82
2023/12/03 05:13:16;;;;;;;27.57;16.73;;;-2.20;99.90;;;;;;5024429;28;20256;-82
2023/12/03 05:15:44;;;;;;;34.53;17.10;;;-2.10;99.90;;;;;;5048203;28;20239;-81
2023/12/03 05:18:11;;;;;;;26.87;16.50;;;-2.10;99.90;;;;;;5045642;28;20220;-80
2023/12/03 05:20:37;;;;;;;59.00;17.73;;;-2.00;99.90;;;;;;5028239;28;20287;-80
2023/12/03 05:23:04;;;;;;;34.23;17.03;;;-2.00;99.90;;;;;;5050029;28;20314;-81
2023/12/03 05:25:31;;;;;;;27.87;15.90;;;-1.90;99.90;;;;;;5029525;28;20580;-80
2023/12/03 05:27:57;;;;;;;59.63;18.20;;;-1.80;99.90;;;;;;5031750;28;20318;-82
2023/12/03 05:30:25;;;;;;;32.93;16.77;;;-1.80;99.90;;;;;;5019177;28;20224;-82
2023/12/03 05:32:53;;;;;;;25.87;15.80;;;-1.80;99.90;;;;;;5029013;28;20613;-81
2023/12/03 05:35:20;;;;;;;37.87;16.90;;;-1.70;99.90;;;;;;5045793;28;20646;-81
2023/12/03 05:37:47;;;;;;;29.53;16.70;;;-1.70;99.90;;;;;;5032598;28;20232;-81
2023/12/03 05:40:14;;;;;;;28.77;17.00;;;-1.70;99.90;;;;;;5026433;28;20220;-81
2023/12/03 05:42:40;;;;;;;31.97;17.57;;;-1.60;99.90;;;;;;5050281;28;20476;-80
2023/12/03 05:45:08;;;;;;;27.30;16.10;;;-1.60;99.90;;;;;;5046459;28;21286;-80
2023/12/03 05:47:36;;;;;;;34.03;17.00;;;-1.60;99.90;;;;;;5027676;28;20738;-82
2023/12/03 05:50:05;;;;;;;28.83;16.13;;;-1.60;99.90;;;;;;5047825;28;20468;-82
2023/12/03 05:52:32;;;;;;;112.87;20.83;;;-1.60;99.90;;;;;;5046318;28;20329;-81
2023/12/03 05:54:59;;;;;;;30.27;17.23;;;-1.60;99.90;;;;;;5046149;28;20226;-83
2023/12/03 05:57:26;;;;;;;103.97;19.53;;;-1.50;99.90;;;;;;5028544;28;20556;-82
2023/12/03 05:59:53;;;;;;;34.47;16.33;;;-1.50;99.90;;;;;;5029519;28;20224;-81
2023/12/03 06:02:20;;;;;;;30.73;16.50;;;-1.50;99.90;;;;;;5041737;28;20231;-81
2023/12/03 06:04:48;;;;;;;70.20;19.53;;;-1.50;99.90;;;;;;5046887;28;20304;-81
2023/12/03 06:07:16;;;;;;;37.17;19.63;;;-1.50;99.90;;;;;;5048235;28;20343;-81
2023/12/03 06:09:43;;;;;;;32.43;17.93;;;-1.50;99.90;;;;;;5024355;28;20224;-80
2023/12/03 06:12:10;;;;;;;29.57;16.23;;;-1.40;99.90;;;;;;5030277;28;20220;-81
2023/12/03 06:14:37;;;;;;;44.73;17.97;;;-1.40;99.90;;;;;;5052827;28;20228;-80
2023/12/03 06:17:04;;;;;;;29.63;16.40;;;-1.40;99.90;;;;;;5046917;28;20216;-79
2023/12/03 06:19:31;;;;;;;51.27;18.93;;;-1.40;99.90;;;;;;5032093;28;20415;-80
2023/12/03 06:21:58;;;;;;;36.73;16.37;;;-1.40;99.90;;;;;;5042879;28;20809;-80
2023/12/03 06:24:26;;;;;;;162.67;24.27;;;-1.40;99.90;;;;;;5033537;28;20401;-80
2023/12/03 06:26:53;;;;;;;321.40;30.67;;;-1.40;99.90;;;;;;5029714;28;20228;-79
2023/12/03 06:29:20;;;;;;;55.93;17.63;;;-1.40;99.90;;;;;;5042756;28;20298;-79
2023/12/03 06:31:48;;;;;;;28.87;16.50;;;-1.40;99.90;;;;;;5031322;28;20758;-80
2023/12/03 06:34:15;;;;;;;28.93;16.63;;;-1.40;99.90;;;;;;5048071;28;20741;-79
2023/12/03 06:36:42;;;;;;;33.80;16.13;;;-1.40;99.90;;;;;;5051744;28;20222;-80
2023/12/03 06:39:09;;;;;;;42.30;18.23;;;-1.40;99.90;;;;;;5031065;28;20232;-80
2023/12/03 06:41:37;;;;;;;39.10;17.37;;;-1.40;99.90;;;;;;5048541;28;20643;-79
2023/12/03 06:44:04;;;;;;;196.93;26.00;;;-1.40;99.90;;;;;;5048482;28;20240;-79
2023/12/03 06:46:31;;;;;;;30.00;16.53;;;-1.40;99.90;;;;;;5045187;28;20224;-80
2023/12/03 06:48:57;;;;;;;72.00;19.27;;;-1.40;99.90;;;;;;5030261;28;20231;-80
2023/12/03 06:51:24;;;;;;;35.33;17.70;;;-1.40;99.90;;;;;;5047615;28;20674;-80
2023/12/03 06:53:51;;;;;;;28.63;15.63;;;-1.40;99.90;;;;;;5027335;28;20259;-81
2023/12/03 06:56:18;;;;;;;40.23;17.40;;;-1.40;99.90;;;;;;5039885;28;20282;-81
2023/12/03 06:58:46;;;;;;;32.93;17.83;;;-1.40;99.90;;;;;;5031119;28;20727;-81
2023/12/03 07:01:13;;;;;;;31.10;17.30;;;-1.40;99.90;;;;;;5032835;28;20235;-81
2023/12/03 07:03:40;;;;;;;28.70;16.33;;;-1.40;99.90;;;;;;5035811;28;20222;-81
2023/12/03 07:06:07;;;;;;;63.03;18.23;;;-1.40;99.90;;;;;;5045988;28;20322;-82
2023/12/03 07:08:34;;;;;;;53.30;18.40;;;-1.40;99.90;;;;;;5048588;28;20314;-81
2023/12/03 07:11:01;;;;;;;46.77;19.63;;;-1.40;99.90;;;;;;5031412;28;20283;-81
2023/12/03 07:13:27;;;;;;;51.70;17.87;;;-1.40;99.90;;;;;;5048839;28;20232;-81
2023/12/03 07:15:55;;;;;;;46.60;18.97;;;-1.40;99.90;;;;;;5047580;28;20913;-81
2023/12/03 07:18:22;;;;;;;189.37;24.63;;;-1.40;99.90;;;;;;5031899;28;20278;-81
2023/12/03 07:20:49;;;;;;;43.97;19.40;;;-1.40;99.90;;;;;;5045383;28;20238;-82
2023/12/03 07:23:16;;;;;;;72.90;20.73;;;-1.40;99.90;;;;;;5027877;28;20800;-81
2023/12/03 07:25:42;;;;;;;159.63;23.63;;;-1.40;99.90;;;;;;5045271;28;20295;-81
2023/12/03 07:28:10;;;;;;;47.57;19.23;;;-1.40;99.90;;;;;;5048294;28;20235;-81
2023/12/03 07:30:37;;;;;;;74.43;20.33;;;-1.40;99.90;;;;;;5029720;28;20556;-81
2023/12/03 07:33:05;;;;;;;107.00;21.67;;;-1.50;99.90;;;;;;5048107;28;20299;-82
2023/12/03 07:35:32;;;;;;;204.63;26.80;;;-1.50;99.90;;;;;;5034871;28;20292;-82
2023/12/03 07:37:59;;;;;;;267.33;27.43;;;-1.50;99.90;;;;;;5032402;28;20303;-82
2023/12/03 07:40:26;;;;;;;44.90;20.20;;;-1.50;99.90;;;;;;5028298;28;20223;-81
2023/12/03 07:42:53;;;;;;;158.03;25.20;;;-1.50;99.90;;;;;;5046092;28;20571;-81
2023/12/03 07:45:20;;;;;;;49.97;19.53;;;-1.50;99.90;;;;;;5047472;28;20220;-81
2023/12/03 07:47:47;;;;;;;343.33;34.83;;;-1.50;99.90;;;;;;5034720;28;20235;-80
2023/12/03 07:50:15;;;;;;;66.97;21.43;;;-1.50;99.90;;;;;;5052053;28;20216;-81
2023/12/03 07:52:43;;;;;;;61.60;19.97;;;-1.50;99.90;;;;;;5048409;28;20545;-80
2023/12/03 07:55:10;;;;;;;57.60;21.73;;;-1.50;99.90;;;;;;5030063;28;20215;-80
2023/12/03 07:57:37;;;;;;;707.60;60.93;;;-1.50;99.90;;;;;;5045773;28;20224;-80
2023/12/03 08:00:06;;;;;;;130.67;25.80;;;-1.50;99.90;;;;;;5032566;28;20259;-80
2023/12/03 08:02:39;;;;;;;358.73;36.43;;;-1.50;99.90;;;;;;5047012;28;20227;-81
2023/12/03 08:05:07;;;;;;;557.90;48.83;;;-1.50;99.90;;;;;;5044961;28;20307;-81
2023/12/03 08:07:35;;;;;;;144.40;22.30;;;-1.50;99.90;;;;;;5043087;28;20266;-79
2023/12/03 08:10:02;;;;;;;123.57;22.83;;;-1.50;99.90;;;;;;5040752;28;20220;-80
2023/12/03 08:12:29;;;;;;;87.87;20.23;;;-1.50;99.90;;;;;;5040797;28;20236;-80
2023/12/03 08:14:56;;;;;;;76.67;20.67;;;-1.50;99.90;;;;;;5027545;28;20235;-80
2023/12/03 08:17:24;;;;;;;267.70;29.80;;;-1.50;99.90;;;;;;5035043;28;20230;-80
2023/12/03 08:19:51;;;;;;;73.60;19.63;;;-1.60;99.90;;;;;;5041379;28;20289;-80
2023/12/03 08:22:17;;;;;;;173.47;24.40;;;-1.60;99.90;;;;;;5021556;28;20216;-80
2023/12/03 08:24:45;;;;;;;246.17;28.53;;;-1.60;99.90;;;;;;5022399;28;20339;-79
2023/12/03 08:27:12;;;;;;;90.13;22.50;;;-1.50;99.90;;;;;;5042276;28;20244;-80
2023/12/03 08:29:39;;;;;;;920.17;75.37;;;-1.50;99.90;;;;;;5050685;28;20878;-81
2023/12/03 08:32:06;;;;;;;124.00;22.67;;;-1.50;99.90;;;;;;5034348;28;20774;-78
2023/12/03 08:34:33;;;;;;;141.37;22.37;;;-1.50;99.90;;;;;;5054708;28;20676;-83
2023/12/03 08:37:00;;;;;;;171.27;24.73;;;-1.40;99.90;;;;;;5052176;28;20287;-84
2023/12/03 08:39:26;;;;;;;97.83;19.43;;;-1.40;99.90;;;;;;5052672;28;20826;-78
2023/12/03 08:41:55;;;;;;;137.13;22.03;;;-1.40;99.90;;;;;;5040315;28;20695;-79
2023/12/03 08:44:22;;;;;;;105.37;20.77;;;-1.40;99.90;;;;;;5049131;28;20293;-80
2023/12/03 08:46:49;;;;;;;257.87;26.30;;;-1.40;99.90;;;;;;5040949;28;20224;-80
2023/12/03 08:49:16;;;;;;;205.17;23.07;;;-1.40;99.90;;;;;;5039605;28;21223;-79
2023/12/03 08:51:42;;;;;;;54.37;16.20;;;-1.40;99.90;;;;;;5028588;28;20284;-80
2023/12/03 08:54:09;;;;;;;98.23;18.93;;;-1.40;99.90;;;;;;5046432;28;20220;-80
2023/12/03 08:56:36;;;;;;;105.03;18.90;;;-1.30;99.90;;;;;;5029650;28;20871;-79
2023/12/03 08:59:05;;;;;;;73.27;17.60;;;-1.30;99.90;;;;;;5042212;28;20289;-80
2023/12/03 09:01:31;;;;;;;70.63;16.23;;;-1.40;99.90;;;;;;5013529;28;20240;-80
2023/12/03 09:03:58;;;;;;;44.30;15.23;;;-1.40;99.90;;;;;;5043246;28;20231;-79
2023/12/03 09:06:25;;;;;;;67.20;15.27;;;-1.40;99.90;;;;;;5025114;28;20323;-80
2023/12/03 09:08:52;;;;;;;71.63;15.23;;;-1.40;99.90;;;;;;5045476;28;20252;-79
2023/12/03 09:11:19;;;;;;;85.43;16.97;;;-1.50;99.90;;;;;;5021868;28;20227;-79
2023/12/03 09:13:46;;;;;;;154.13;20.00;;;-1.50;99.90;;;;;;5042163;28;20301;-80
2023/12/03 09:16:14;;;;;;;57.07;16.20;;;-1.50;99.90;;;;;;5040481;28;20310;-79
2023/12/03 09:18:41;;;;;;;85.47;17.57;;;-1.60;99.90;;;;;;5049036;28;20243;-79
2023/12/03 09:21:11;;;;;;;50.47;15.33;;;-1.60;99.90;;;;;;5035052;28;20226;-80
2023/12/03 09:23:38;;;;;;;64.70;16.43;;;-1.60;99.90;;;;;;5031125;28;20231;-79
2023/12/03 09:26:06;;;;;;;112.40;19.40;;;-1.70;99.90;;;;;;5040857;28;20224;-80
2023/12/03 09:28:34;;;;;;;249.60;27.07;;;-1.70;99.90;;;;;;5024567;28;20219;-80
2023/12/03 09:31:01;;;;;;;123.80;19.57;;;-1.70;99.90;;;;;;5023823;28;20650;-79
2023/12/03 09:33:29;;;;;;;90.27;16.40;;;-1.70;99.90;;;;;;5037431;28;20228;-79
2023/12/03 09:35:57;;;;;;;76.67;19.13;;;-1.70;99.90;;;;;;5030594;28;20282;-79
2023/12/03 09:38:24;;;;;;;105.07;17.30;;;-1.70;99.90;;;;;;5017617;28;20217;-79
2023/12/03 09:40:56;;;;;;;145.30;21.27;;;-1.80;99.90;;;;;;5022688;28;20261;-79
2023/12/03 09:43:27;;;;;;;62.17;16.90;;;-1.80;99.90;;;;;;5041306;28;20231;-78
2023/12/03 09:45:57;;;;;;;94.37;16.47;;;-1.80;99.90;;;;;;5040563;28;20311;-78
2023/12/03 09:48:30;;;;;;;119.47;17.37;;;-1.80;99.90;;;;;;5020044;28;20228;-78
2023/12/03 09:51:01;;;;;;;55.97;15.00;;;-1.80;99.90;;;;;;5040183;28;20905;-78
2023/12/03 09:53:31;;;;;;;81.47;14.77;;;-1.80;99.90;;;;;;5033863;28;20965;-78
2023/12/03 09:55:58;;;;;;;131.03;16.67;;;-1.80;99.90;;;;;;5023380;28;20235;-78
2023/12/03 09:58:26;;;;;;;44.90;11.90;;;-1.80;99.90;;;;;;5020310;28;20334;-78
2023/12/03 10:00:54;;;;;;;68.30;14.27;;;-1.80;99.90;;;;;;5043051;28;20970;-78
2023/12/03 10:03:21;;;;;;;62.17;17.23;;;-1.80;99.90;;;;;;5041651;28;20234;-79
2023/12/03 10:05:49;;;;;;;83.90;15.67;;;-1.80;99.90;;;;;;5020188;28;20700;-78
2023/12/03 10:08:18;;;;;;;88.37;16.87;;;-1.80;99.90;;;;;;5040674;28;20246;-78
2023/12/03 10:10:52;;;;;;;80.03;16.83;;;-1.80;99.90;;;;;;5043141;28;20465;-78
2023/12/03 10:13:19;;;;;;;57.77;15.67;;;-1.80;99.90;;;;;;5042078;28;20396;-78
2023/12/03 10:15:46;;;;;;;61.53;13.93;;;-1.80;99.90;;;;;;5039495;28;20235;-78
2023/12/03 10:18:13;;;;;;;52.10;14.67;;;-1.80;99.90;;;;;;5044020;28;20223;-77
2023/12/03 10:20:40;;;;;;;50.97;21.80;;;-1.80;99.90;;;;;;5048774;28;20234;-78
2023/12/03 10:23:14;;;;;;;51.50;20.00;;;-1.80;99.90;;;;;;5045490;28;20807;-79
2023/12/03 10:25:43;;;;;;;166.20;26.67;;;-1.80;99.90;;;;;;5025630;28;20254;-78
2023/12/03 10:28:11;;;;;;;75.87;21.60;;;-1.80;99.90;;;;;;5027399;28;20244;-79
2023/12/03 10:30:38;;;;;;;45.40;16.73;;;-1.80;99.90;;;;;;5040128;28;20232;-78
2023/12/03 10:33:06;;;;;;;43.43;13.80;;;-1.80;99.90;;;;;;5042389;28;20306;-79
2023/12/03 10:35:34;;;;;;;72.90;13.93;;;-1.80;99.90;;;;;;5043123;28;20569;-78
2023/12/03 10:38:01;;;;;;;93.50;16.43;;;-1.80;99.90;;;;;;5042220;28;20223;-79
2023/12/03 10:40:32;;;;;;;43.83;13.77;;;-1.80;99.90;;;;;;5026727;28;20285;-78
2023/12/03 10:43:01;;;;;;;106.53;16.20;;;-1.70;99.90;;;;;;5042005;28;20648;-78
2023/12/03 10:45:29;;;;;;;82.47;15.77;;;-1.70;99.90;;;;;;5037406;28;20277;-78
2023/12/03 10:48:00;;;;;;;80.30;15.77;;;-1.60;99.90;;;;;;5041712;28;20314;-78
2023/12/03 10:50:29;;;;;;;62.03;13.80;;;-1.60;99.90;;;;;;5040943;28;20238;-78
2023/12/03 10:52:59;;;;;;;47.20;14.27;;;-1.60;99.90;;;;;;5041140;28;20223;-78
2023/12/03 10:55:26;;;;;;;49.47;15.20;;;-1.60;99.90;;;;;;5028508;28;20691;-78
2023/12/03 10:57:59;;;;;;;140.67;18.13;;;-1.60;99.90;;;;;;5043285;28;20220;-78
2023/12/03 11:00:36;;;;;;;132.13;17.77;;;-1.50;99.90;;;;;;5038269;28;20235;-78
2023/12/03 11:03:09;;;;;;;34.23;15.03;;;-1.50;99.90;;;;;;5028387;28;20231;-78
2023/12/03 11:05:43;;;;;;;84.70;17.77;;;-1.40;99.90;;;;;;5036908;28;20655;-78
2023/12/03 11:08:12;;;;;;;83.63;16.20;;;-1.40;99.90;;;;;;5044503;28;20226;-78
2023/12/03 11:10:39;;;;;;;41.57;17.70;;;-1.40;99.90;;;;;;5041678;28;20228;-78
2023/12/03 11:13:09;;;;;;;53.17;18.33;;;-1.30;99.90;;;;;;5038894;28;20238;-78
2023/12/03 11:15:38;;;;;;;38.57;19.33;;;-1.30;99.90;;;;;;5041077;28;20668;-78
2023/12/03 11:18:06;;;;;;;66.23;20.53;;;-1.30;99.90;;;;;;5041779;28;20720;-78
2023/12/03 11:20:36;;;;;;;65.40;20.40;;;-1.30;99.90;;;;;;5040284;28;20332;-79
2023/12/03 11:23:21;;;;;;;39.70;20.67;;;-1.20;99.90;;;;;;5025368;28;20234;-79
2023/12/03 11:25:56;;;;;;;51.70;20.53;;;-1.20;99.90;;;;;;5036474;28;20235;-78
2023/12/03 11:28:23;;;;;;;71.00;21.07;;;-1.20;99.90;;;;;;5038347;28;20232;-79
2023/12/03 11:30:52;;;;;;;44.57;20.47;;;-1.10;99.90;;;;;;5023490;28;20231;-78
2023/12/03 11:33:20;;;;;;;65.67;22.43;;;-1.10;99.90;;;;;;5039981;28;21398;-79
2023/12/03 11:35:48;;;;;;;37.23;19.30;;;-1.10;99.90;;;;;;5025731;28;20212;-78
2023/12/03 11:38:16;;;;;;;41.33;20.07;;;-1.00;99.90;;;;;;5037009;28;20875;-79
2023/12/03 11:40:43;;;;;;;39.97;19.87;;;-1.00;99.90;;;;;;5032093;28;21121;-78
2023/12/03 11:43:24;;;;;;;36.07;19.27;;;-1.00;99.90;;;;;;5017665;28;20788;-78
2023/12/03 11:45:52;;;;;;;38.17;19.83;;;-0.90;99.90;;;;;;5025376;28;20728;-80
2023/12/03 11:48:21;;;;;;;39.47;20.10;;;-0.90;99.90;;;;;;5045496;28;20665;-77
2023/12/03 11:50:49;;;;;;;54.87;22.80;;;-0.80;99.90;;;;;;5046718;28;20311;-78
2023/12/03 11:53:16;;;;;;;40.77;20.90;;;-0.80;99.90;;;;;;5048157;28;20730;-78
2023/12/03 11:55:46;;;;;;;35.47;20.60;;;-0.80;99.90;;;;;;5044324;28;20884;-78
2023/12/03 11:58:14;;;;;;;39.17;22.97;;;-0.70;99.90;;;;;;5045366;28;20760;-78
2023/12/03 12:00:41;;;;;;;33.00;19.40;;;-0.70;99.90;;;;;;5029523;28;20304;-78
2023/12/03 12:03:10;;;;;;;33.90;19.07;;;-0.60;99.90;;;;;;5039419;28;20229;-78
2023/12/03 12:05:44;;;;;;;30.10;18.70;;;-0.60;99.90;;;;;;5042240;28;20273;-78
2023/12/03 12:08:10;;;;;;;45.13;19.90;;;-0.60;99.90;;;;;;5043970;28;20692;-79
2023/12/03 12:10:38;;;;;;;31.40;18.60;;;-0.50;99.90;;;;;;5027048;28;20244;-78
2023/12/03 12:13:06;;;;;;;31.90;18.57;;;-0.50;99.90;;;;;;5047286;28;20216;-78
2023/12/03 12:15:33;;;;;;;32.23;19.10;;;-0.50;99.90;;;;;;5043484;28;20310;-78
2023/12/03 12:18:00;;;;;;;35.37;19.20;;;-0.40;99.90;;;;;;5028989;28;20232;-78
2023/12/03 12:20:29;;;;;;;39.73;22.97;;;-0.40;99.90;;;;;;5043906;28;20256;-78
2023/12/03 12:22:57;;;;;;;28.43;17.47;;;-0.30;99.90;;;;;;5047150;28;20252;-78
2023/12/03 12:25:26;;;;;;;30.57;17.80;;;-0.30;99.90;;;;;;5041092;28;20931;-78
2023/12/03 12:27:53;;;;;;;30.93;19.30;;;-0.30;99.90;;;;;;5041882;28;20235;-78